Terminal Aerodrome Forecast
Issued by NWS Wakefield, VA

Home | Current Version | Previous Version | Text Only | Print | Product List | Glossary On
Versions: 1 2 3 4 5 6 7 8 9 10 11 12 13 14 15 16 17 18 19 20 21 22 23 24 25 26 27 28
000
FTUS41 KAKQ 061914 AAA
TAFRIC
TAF AMD
KRIC 061914Z 0619/0718 31005KT P6SM SCT012 BKN045
      TEMPO 0619/0622 4SM -SHRA BR BKN025
     FM062300 35006KT P6SM SCT015 OVC040
     FM070500 29003KT 5SM BR OVC015
     FM071300 30006KT P6SM SCT015 BKN035=

USA.gov is the U.S. government's official web portal to all federal, state and local government web resources and services.